createdAt,value
2018-08-13T00:00:41.869Z,95280.17
2018-08-13T00:03:17.264Z,95277.93
2018-08-13T00:05:51.985Z,95284.70
2018-08-13T00:08:26.624Z,95277.66
2018-08-13T00:11:01.106Z,95281.99
2018-08-13T00:13:35.521Z,95272.16
2018-08-13T00:16:10.316Z,95269.52
2018-08-13T00:18:45.056Z,95264.59
2018-08-13T00:21:20.041Z,95261.66
2018-08-13T00:23:54.338Z,95264.96
2018-08-13T00:26:29.089Z,95262.17
2018-08-13T00:29:03.847Z,95256.47
2018-08-13T00:31:38.641Z,95251.89
2018-08-13T00:34:13.784Z,95244.15
2018-08-13T00:36:48.124Z,95245.81
2018-08-13T00:39:22.440Z,95248.55
2018-08-13T00:41:57.689Z,95249.16
2018-08-13T00:44:32.853Z,95247.39
2018-08-13T00:47:07.704Z,95241.31
2018-08-13T00:49:42.165Z,95240.31
2018-08-13T00:52:17.112Z,95234.83
2018-08-13T00:54:51.519Z,95236.31
2018-08-13T00:57:26.952Z,95241.31
2018-08-13T01:00:02.108Z,95238.42
2018-08-13T01:02:36.928Z,95239.52
2018-08-13T01:05:11.756Z,95235.20
2018-08-13T01:07:46.119Z,95233.61
2018-08-13T01:10:21.581Z,95231.62
2018-08-13T01:12:55.849Z,95233.45
2018-08-13T01:15:30.960Z,95234.14
2018-08-13T01:18:06.241Z,95229.63
2018-08-13T01:20:41.149Z,95228.45
2018-08-13T01:23:15.488Z,95222.11
2018-08-13T01:25:50.193Z,95220.77
2018-08-13T01:28:24.932Z,95214.70
2018-08-13T01:30:59.429Z,95213.87
2018-08-13T01:33:34.262Z,95220.41
2018-08-13T01:36:08.933Z,95218.59
2018-08-13T01:38:44.092Z,95220.91
2018-08-13T01:41:18.841Z,95207.78
2018-08-13T01:43:53.831Z,95205.28
2018-08-13T01:46:28.707Z,95197.61
2018-08-13T01:49:03.532Z,95198.36
2018-08-13T01:51:38.653Z,95196.95
2018-08-13T01:54:12.933Z,95200.58
2018-08-13T01:56:47.669Z,95194.76
2018-08-13T01:59:22.142Z,95190.96
2018-08-13T02:01:56.777Z,95193.59
2018-08-13T02:04:32.033Z,95192.83
2018-08-13T02:07:06.793Z,95194.28
2018-08-13T02:09:42.404Z,95190.48
2018-08-13T02:12:16.985Z,95183.09
2018-08-13T02:14:51.872Z,95190.66
2018-08-13T02:17:26.513Z,95193.52
2018-08-13T02:20:01.233Z,95194.00
2018-08-13T02:22:35.759Z,95189.13
2018-08-13T02:25:10.156Z,95186.55
2018-08-13T02:27:44.488Z,95182.93
2018-08-13T02:30:18.880Z,95184.37
2018-08-13T02:32:53.879Z,95176.87
2018-08-13T02:35:28.708Z,95174.48
2018-08-13T02:38:03.213Z,95169.59
2018-08-13T02:40:37.613Z,95165.47
2018-08-13T02:43:12.050Z,95163.39
2018-08-13T02:45:47.040Z,95164.41
2018-08-13T02:48:21.412Z,95158.55
2018-08-13T02:50:55.894Z,95160.56
2018-08-13T02:53:30.456Z,95166.28
2018-08-13T02:56:05.190Z,95160.33
2018-08-13T02:58:39.878Z,95156.10
2018-08-13T03:01:14.220Z,95155.06
2018-08-13T03:03:49.000Z,95151.33
2018-08-13T03:06:23.821Z,95148.17
2018-08-13T03:08:58.431Z,95157.00
2018-08-13T03:11:32.733Z,95150.80
2018-08-13T03:14:07.203Z,95154.16
2018-08-13T03:16:42.000Z,95154.71
2018-08-13T03:19:16.319Z,95154.91
2018-08-13T03:21:50.957Z,95161.14
2018-08-13T03:24:25.628Z,95161.53
2018-08-13T03:27:00.073Z,95161.94
2018-08-13T03:29:34.421Z,95164.05
2018-08-13T03:32:09.075Z,95168.20
2018-08-13T03:34:43.420Z,95168.52
2018-08-13T03:37:17.910Z,95166.33
2018-08-13T03:39:52.315Z,95158.16
2018-08-13T03:42:27.175Z,95166.84
2018-08-13T03:45:01.496Z,95157.78
2018-08-13T03:47:35.944Z,95149.02
2018-08-13T03:50:11.741Z,95151.73
2018-08-13T03:52:46.287Z,95153.59
2018-08-13T03:55:21.281Z,95147.30
2018-08-13T03:57:56.089Z,95148.58
2018-08-13T04:00:30.504Z,95153.36
2018-08-13T04:03:06.005Z,95154.19
2018-08-13T04:05:40.384Z,95147.92
2018-08-13T04:08:16.033Z,95150.00
2018-08-13T04:10:50.376Z,95145.53
2018-08-13T04:13:24.867Z,95149.17
2018-08-13T04:15:59.981Z,95150.00
2018-08-13T04:18:34.402Z,95148.17
2018-08-13T04:21:09.451Z,95155.06
2018-08-13T04:23:44.016Z,95152.36
2018-08-13T04:26:18.692Z,95152.39
2018-08-13T04:28:53.544Z,95155.65
2018-08-13T04:31:28.169Z,95159.88
2018-08-13T04:34:02.840Z,95158.11
2018-08-13T04:36:37.530Z,95165.52
2018-08-13T04:39:13.659Z,95159.18
2018-08-13T04:41:48.090Z,95157.45
2018-08-13T04:44:22.924Z,95155.55
2018-08-13T04:46:57.741Z,95158.62
2018-08-13T04:49:32.670Z,95165.47
2018-08-13T04:52:07.189Z,95160.77
2018-08-13T04:54:42.131Z,95161.84
2018-08-13T04:57:17.453Z,95154.13
2018-08-13T04:59:51.807Z,95154.92
2018-08-13T05:02:27.215Z,95161.55
2018-08-13T05:05:02.159Z,95162.81
2018-08-13T05:07:36.628Z,95163.47
2018-08-13T05:10:11.920Z,95162.56
2018-08-13T05:12:46.697Z,95154.39
2018-08-13T05:15:21.725Z,95149.28
2018-08-13T05:17:56.412Z,95147.38
2018-08-13T05:20:31.256Z,95142.41
2018-08-13T05:23:06.179Z,95140.28
2018-08-13T05:25:40.760Z,95142.86
2018-08-13T05:28:15.383Z,95137.20
2018-08-13T05:30:49.788Z,95139.89
2018-08-13T05:33:24.586Z,95137.35
2018-08-13T05:35:59.237Z,95138.73
2018-08-13T05:38:33.629Z,95140.70
2018-08-13T05:41:08.349Z,95140.31
2018-08-13T05:43:42.638Z,95130.16
2018-08-13T05:46:17.140Z,95128.13
2018-08-13T05:48:51.653Z,95130.34
2018-08-13T05:51:25.985Z,95128.86
2018-08-13T05:54:00.765Z,95131.33
2018-08-13T05:56:35.289Z,95130.28
2018-08-13T05:59:09.833Z,95138.74
2018-08-13T06:01:47.911Z,95137.20
2018-08-13T06:04:22.393Z,95138.31
2018-08-13T06:06:57.092Z,95137.86
2018-08-13T06:12:42.724Z,95135.25
2018-08-13T06:15:17.640Z,95127.98
2018-08-13T06:17:52.009Z,95130.42
2018-08-13T06:20:28.136Z,95128.11
2018-08-13T06:23:02.773Z,95124.50
2018-08-13T06:25:37.633Z,95128.73
2018-08-13T06:28:16.763Z,95127.99
2018-08-13T06:30:56.585Z,95134.92
2018-08-13T06:36:19.904Z,95130.27
2018-08-13T06:38:54.738Z,95131.88
2018-08-13T06:41:30.311Z,95129.78
2018-08-13T06:44:05.105Z,95125.00
2018-08-13T06:46:39.556Z,95121.84
2018-08-13T06:49:14.719Z,95132.47
2018-08-13T06:51:49.272Z,95129.80
2018-08-13T06:54:23.891Z,95123.17
2018-08-13T06:56:58.308Z,95119.97
2018-08-13T06:59:33.099Z,95117.86
2018-08-13T07:02:07.966Z,95121.00
2018-08-13T07:04:42.612Z,95113.27
2018-08-13T07:07:17.280Z,95117.52
2018-08-13T07:09:51.962Z,95121.69
2018-08-13T07:12:26.626Z,95122.43
2018-08-13T07:15:01.151Z,95123.50
2018-08-13T07:20:38.149Z,95133.47
2018-08-13T07:23:13.108Z,95134.50
2018-08-13T07:25:47.680Z,95130.45
2018-08-13T07:28:22.029Z,95129.87
2018-08-13T07:30:56.921Z,95140.13
2018-08-13T07:33:31.431Z,95133.37
2018-08-13T07:36:06.230Z,95138.03
2018-08-13T07:38:41.180Z,95140.02
2018-08-13T07:41:15.476Z,95137.92
2018-08-13T07:43:49.916Z,95130.13
2018-08-13T07:46:24.697Z,95128.82
2018-08-13T07:48:59.810Z,95120.65
2018-08-13T07:51:34.582Z,95120.73
2018-08-13T07:54:09.977Z,95117.59
2018-08-13T07:56:44.641Z,95114.07
2018-08-13T07:59:19.084Z,95113.45
2018-08-13T08:01:54.005Z,95111.05
2018-08-13T08:04:28.661Z,95116.11
2018-08-13T08:07:03.604Z,95119.98
2018-08-13T08:09:37.912Z,95130.02
2018-08-13T08:12:12.448Z,95123.69
2018-08-13T08:14:46.984Z,95128.04
2018-08-13T08:17:21.688Z,95124.48
2018-08-13T08:19:56.225Z,95132.10
2018-08-13T08:22:30.681Z,95125.69
2018-08-13T08:25:07.956Z,95125.16
2018-08-13T08:27:43.118Z,95124.84
2018-08-13T08:30:17.675Z,95128.98
2018-08-13T08:32:53.135Z,95130.52
2018-08-13T08:35:27.513Z,95135.16
2018-08-13T08:38:02.224Z,95136.09
2018-08-13T08:40:37.306Z,95131.91
2018-08-13T08:43:12.393Z,95138.93
2018-08-13T08:45:47.343Z,95138.83
2018-08-13T08:48:22.228Z,95138.53
2018-08-13T08:50:56.568Z,95133.36
2018-08-13T08:53:30.907Z,95131.28
2018-08-13T08:56:05.812Z,95129.92
2018-08-13T08:58:40.700Z,95125.09
2018-08-13T09:01:15.196Z,95128.13
2018-08-13T09:03:50.144Z,95128.43
2018-08-13T09:06:24.457Z,95129.47
2018-08-13T09:08:59.135Z,95136.41
2018-08-13T09:11:33.777Z,95139.81
2018-08-13T09:14:08.847Z,95132.30
2018-08-13T09:16:45.797Z,95137.09
2018-08-13T09:19:31.861Z,95135.22
2018-08-13T09:22:17.519Z,95136.58
2018-08-13T09:25:03.572Z,95134.03
2018-08-13T09:27:49.631Z,95136.03
2018-08-13T09:30:35.407Z,95136.45
2018-08-13T09:33:21.464Z,95121.86
2018-08-13T09:35:56.142Z,95124.63
2018-08-13T09:38:30.540Z,95119.48
2018-08-13T09:41:05.087Z,95115.23
2018-08-13T09:43:40.081Z,95111.64
2018-08-13T09:46:14.733Z,95103.13
2018-08-13T09:48:49.210Z,95104.78
2018-08-13T09:51:23.648Z,95104.55
2018-08-13T09:53:58.311Z,95095.93
2018-08-13T09:56:32.800Z,95100.75
2018-08-13T09:59:07.639Z,95099.13
2018-08-13T10:01:42.155Z,95091.72
2018-08-13T10:04:16.713Z,95088.53
2018-08-13T10:06:51.745Z,95079.17
2018-08-13T10:09:26.275Z,95082.13
2018-08-13T10:12:01.091Z,95086.50
2018-08-13T10:14:35.867Z,95087.95
2018-08-13T10:17:10.192Z,95090.66
2018-08-13T10:19:44.946Z,95086.06
2018-08-13T10:22:19.564Z,95087.02
2018-08-13T10:24:54.487Z,95086.89
2018-08-13T10:27:29.076Z,95084.05
2018-08-13T10:30:03.776Z,95083.98
2018-08-13T10:32:38.569Z,95080.08
2018-08-13T10:35:13.475Z,95082.91
2018-08-13T10:37:48.278Z,95072.88
2018-08-13T10:40:23.376Z,95066.82
2018-08-13T10:43:05.246Z,95075.02
2018-08-13T10:45:39.544Z,95076.47
2018-08-13T10:48:14.373Z,95072.81
2018-08-13T10:50:49.376Z,95062.90
2018-08-13T10:53:23.752Z,95069.16
2018-08-13T10:55:58.776Z,95067.45
2018-08-13T10:58:33.847Z,95066.61
2018-08-13T11:01:08.544Z,95066.89
2018-08-13T11:03:43.629Z,95059.45
2018-08-13T11:06:18.406Z,95064.23
2018-08-13T11:08:52.701Z,95057.42
2018-08-13T11:11:27.068Z,95049.28
2018-08-13T11:14:02.080Z,95057.53
2018-08-13T11:16:36.594Z,95047.70
2018-08-13T11:19:11.738Z,95048.41
2018-08-13T11:21:46.552Z,95049.39
2018-08-13T11:24:21.461Z,95044.75
2018-08-13T11:26:55.760Z,95038.71
2018-08-13T11:29:30.428Z,95032.39
2018-08-13T11:32:05.375Z,95033.65
2018-08-13T11:34:40.431Z,95032.23
2018-08-13T11:37:15.353Z,95035.86
2018-08-13T11:39:50.204Z,95037.20
2018-08-13T11:42:28.871Z,95045.29
2018-08-13T11:45:06.731Z,95040.22
2018-08-13T11:47:44.379Z,95028.39
2018-08-13T11:50:20.444Z,95027.92
2018-08-13T11:52:58.005Z,95025.73
2018-08-13T11:55:33.767Z,95020.77
2018-08-13T11:58:08.287Z,95024.26
2018-08-13T12:00:43.185Z,95003.84
2018-08-13T12:03:17.948Z,95021.70
2018-08-13T12:05:52.687Z,95016.53
2018-08-13T12:08:27.248Z,95013.65
2018-08-13T12:11:02.574Z,95014.63
2018-08-13T12:13:37.962Z,95016.20
2018-08-13T12:16:13.131Z,95015.63
2018-08-13T12:18:48.468Z,95003.83
2018-08-13T12:21:23.352Z,95002.69
2018-08-13T12:23:59.386Z,94997.64
2018-08-13T12:26:37.678Z,94988.90
2018-08-13T12:29:12.886Z,94988.55
2018-08-13T12:31:47.548Z,94987.37
2018-08-13T12:34:22.743Z,94981.63
2018-08-13T12:37:03.374Z,94978.97
2018-08-13T12:39:39.445Z,94974.59
2018-08-13T12:42:15.197Z,94967.57
2018-08-13T12:44:50.632Z,94970.19
2018-08-13T12:47:24.968Z,94973.41
2018-08-13T12:49:59.248Z,94969.37
2018-08-13T12:52:34.028Z,94966.95
2018-08-13T12:55:09.984Z,94965.62
2018-08-13T12:57:44.461Z,94962.08
2018-08-13T13:00:19.331Z,94948.28
2018-08-13T13:02:54.001Z,94944.42
2018-08-13T13:05:29.540Z,94941.23
2018-08-13T13:08:04.400Z,94942.91
2018-08-13T13:10:38.954Z,94935.98
2018-08-13T13:13:13.964Z,94938.95
2018-08-13T13:15:48.309Z,94937.77
2018-08-13T13:18:22.769Z,94931.23
2018-08-13T13:20:57.464Z,94925.94
2018-08-13T13:23:31.928Z,94923.34
2018-08-13T13:26:07.144Z,94919.87
2018-08-13T13:28:42.275Z,94914.64
2018-08-13T13:31:16.617Z,94909.28
2018-08-13T13:33:51.352Z,94908.78
2018-08-13T13:36:26.665Z,94903.13
2018-08-13T13:39:01.233Z,94904.81
2018-08-13T13:41:35.755Z,94897.76
2018-08-13T13:44:10.348Z,94898.42
2018-08-13T13:46:44.731Z,94893.67
2018-08-13T13:49:20.304Z,94890.69
2018-08-13T13:51:55.348Z,94896.52
2018-08-13T13:54:30.484Z,94886.53
2018-08-13T13:57:04.936Z,94893.91
2018-08-13T13:59:39.809Z,94901.05
2018-08-13T14:02:14.783Z,94893.61
2018-08-13T14:04:49.564Z,94899.86
2018-08-13T14:07:24.151Z,94891.72
2018-08-13T14:09:58.964Z,94894.83
2018-08-13T14:12:33.410Z,94889.21
2018-08-13T14:15:09.748Z,94890.91
2018-08-13T14:17:44.331Z,94892.02
2018-08-13T14:20:19.411Z,94899.88
2018-08-13T14:22:54.099Z,94911.53
2018-08-13T14:25:28.759Z,94915.92
2018-08-13T14:28:03.310Z,94943.00
2018-08-13T14:30:38.472Z,94963.86
2018-08-13T14:33:19.872Z,94983.63
2018-08-13T14:35:55.104Z,95018.84
2018-08-13T14:38:30.204Z,95033.00
2018-08-13T14:41:04.861Z,95035.38
2018-08-13T14:43:39.529Z,95064.73
2018-08-13T14:46:14.181Z,95083.68
2018-08-13T14:48:49.333Z,95132.80
2018-08-13T14:51:24.489Z,95141.20
2018-08-13T14:53:58.824Z,95153.87
2018-08-13T14:56:33.508Z,95152.93
2018-08-13T14:59:08.544Z,95165.68
2018-08-13T15:01:45.924Z,95159.44
2018-08-13T15:04:21.048Z,95163.92
2018-08-13T15:06:56.060Z,95167.80
2018-08-13T15:09:30.480Z,95186.27
2018-08-13T15:12:08.929Z,95187.82
2018-08-13T15:14:43.776Z,95189.27
2018-08-13T15:17:18.584Z,95203.89
2018-08-13T15:19:53.435Z,95226.73
2018-08-13T15:22:28.057Z,95233.19
2018-08-13T15:25:03.797Z,95232.73
2018-08-13T15:27:42.191Z,95232.34
2018-08-13T15:30:18.688Z,95228.38
2018-08-13T15:32:53.697Z,95225.43
2018-08-13T15:35:37.701Z,95233.85
2018-08-13T15:38:12.744Z,95244.06
2018-08-13T15:40:47.248Z,95248.92
2018-08-13T15:43:23.380Z,95255.56
2018-08-13T15:46:02.457Z,95261.88
2018-08-13T15:48:39.453Z,95271.42
2018-08-13T15:51:14.042Z,95256.73
2018-08-13T15:53:49.017Z,95241.17
2018-08-13T15:56:23.562Z,95231.96
2018-08-13T15:58:59.510Z,95230.06
2018-08-13T16:01:34.194Z,95219.33
2018-08-13T16:04:08.944Z,95229.16
2018-08-13T16:06:43.833Z,95241.12
2018-08-13T16:09:19.951Z,95238.63
2018-08-13T16:11:55.300Z,95237.20
2018-08-13T16:14:29.855Z,95234.83
2018-08-13T16:17:05.355Z,95225.95
2018-08-13T16:19:40.264Z,95222.69
2018-08-13T16:22:16.383Z,95213.87
2018-08-13T16:24:57.445Z,95216.84
2018-08-13T16:27:32.317Z,95215.07
2018-08-13T16:30:18.100Z,95217.14
2018-08-13T16:32:52.501Z,95203.88
2018-08-13T16:35:27.319Z,95195.89
2018-08-13T16:38:02.646Z,95197.03
2018-08-13T16:40:37.516Z,95192.61
2018-08-13T16:43:32.893Z,95189.44
2018-08-13T16:46:08.608Z,95186.80
2018-08-13T16:48:48.457Z,95175.71
2018-08-13T16:51:22.976Z,95165.91
2018-08-13T16:53:57.765Z,95161.59
2018-08-13T16:56:38.076Z,95160.52
2018-08-13T16:59:18.459Z,95142.38
2018-08-13T17:01:53.394Z,95132.28
2018-08-13T17:04:33.238Z,95111.46
2018-08-13T17:07:08.559Z,95101.95
2018-08-13T17:09:44.714Z,95108.81
2018-08-13T17:12:21.120Z,95111.67
2018-08-13T17:15:01.963Z,95127.35
2018-08-13T17:17:41.536Z,95151.18
2018-08-13T17:20:17.980Z,95151.66
2018-08-13T17:22:52.676Z,95148.50
2018-08-13T17:25:27.255Z,95154.30
2018-08-13T17:28:06.551Z,95159.84
2018-08-13T17:30:41.448Z,95151.40
2018-08-13T17:33:16.283Z,95146.70
2018-08-13T17:35:51.267Z,95149.34
2018-08-13T17:38:26.002Z,95146.95
2018-08-13T17:41:00.416Z,95142.72
2018-08-13T17:43:34.935Z,95144.05
2018-08-13T17:46:09.933Z,95142.41
2018-08-13T17:48:44.381Z,95140.02
2018-08-13T17:51:19.025Z,95143.20
2018-08-13T17:53:53.996Z,95145.58
2018-08-13T17:56:29.058Z,95159.86
2018-08-13T17:59:03.820Z,95169.88
2018-08-13T18:01:38.748Z,95175.38
2018-08-13T18:04:13.232Z,95186.38
2018-08-13T18:06:47.605Z,95186.88
2018-08-13T18:09:21.981Z,95192.95
2018-08-13T18:11:57.199Z,95186.30
2018-08-13T18:14:31.683Z,95188.42
2018-08-13T18:17:06.557Z,95183.06
2018-08-13T18:19:41.348Z,95188.30
2018-08-13T18:22:15.700Z,95183.73
2018-08-13T18:24:50.833Z,95181.09
2018-08-13T18:30:24.532Z,95178.34
2018-08-13T18:32:58.928Z,95176.75
2018-08-13T18:35:33.628Z,95180.69
2018-08-13T18:38:08.913Z,95174.11
2018-08-13T18:40:43.616Z,95169.60
2018-08-13T18:43:18.210Z,95172.80
2018-08-13T18:45:52.745Z,95183.60
2018-08-13T18:48:27.478Z,95191.22
2018-08-13T18:51:02.669Z,95197.80
2018-08-13T18:53:37.280Z,95198.80
2018-08-13T18:56:12.209Z,95203.24
2018-08-13T18:58:46.883Z,95207.44
2018-08-13T19:01:21.252Z,95212.39
2018-08-13T19:03:56.036Z,95212.91
2018-08-13T19:06:30.393Z,95216.13
2018-08-13T19:09:07.368Z,95218.72
2018-08-13T19:11:41.721Z,95220.04
2018-08-13T19:14:16.701Z,95220.89
2018-08-13T19:16:51.245Z,95223.27
2018-08-13T19:19:26.077Z,95226.96
2018-08-13T19:22:00.762Z,95231.72
2018-08-13T19:24:35.365Z,95231.66
2018-08-13T19:27:10.337Z,95226.98
2018-08-13T19:29:44.953Z,95225.12
2018-08-13T19:32:19.397Z,95228.23
2018-08-13T19:34:54.406Z,95231.63
2018-08-13T19:37:29.191Z,95233.44
2018-08-13T19:40:04.313Z,95231.34
2018-08-13T19:42:39.032Z,95228.98
2018-08-13T19:45:14.795Z,95234.01
2018-08-13T19:47:49.619Z,95234.01
2018-08-13T19:50:24.532Z,95242.17
2018-08-13T19:52:58.944Z,95231.63
2018-08-13T19:55:33.844Z,95236.86
2018-08-13T19:58:08.578Z,95238.67
2018-08-13T20:00:43.257Z,95233.73
2018-08-13T20:03:18.353Z,95239.54
2018-08-13T20:05:53.128Z,95242.68
2018-08-13T20:08:28.121Z,95241.09
2018-08-13T20:11:02.663Z,95240.81
2018-08-13T20:13:37.120Z,95235.34
2018-08-13T20:16:12.061Z,95230.02
2018-08-13T20:18:46.754Z,95231.77
2018-08-13T20:21:21.764Z,95237.63
2018-08-13T20:23:56.912Z,95230.98
2018-08-13T20:26:31.372Z,95231.47
2018-08-13T20:29:06.142Z,95234.91
2018-08-13T20:31:40.689Z,95237.55
2018-08-13T20:34:15.422Z,95231.50
2018-08-13T20:36:49.932Z,95233.86
2018-08-13T20:39:25.378Z,95233.09
2018-08-13T20:41:59.893Z,95237.05
2018-08-13T20:44:35.069Z,95243.07
2018-08-13T20:47:09.707Z,95236.11
2018-08-13T20:49:44.261Z,95236.09
2018-08-13T20:52:18.904Z,95234.79
2018-08-13T20:54:53.348Z,95229.95
2018-08-13T20:57:28.024Z,95233.89
2018-08-13T21:00:02.493Z,95235.93
2018-08-13T21:02:36.984Z,95231.95
2018-08-13T21:05:11.761Z,95229.61
2018-08-13T21:07:47.282Z,95226.31
2018-08-13T21:10:23.261Z,95233.62
2018-08-13T21:12:57.893Z,95233.88
2018-08-13T21:15:33.804Z,95237.22
2018-08-13T21:18:08.269Z,95237.16
2018-08-13T21:20:43.133Z,95244.55
2018-08-13T21:23:18.008Z,95243.29
2018-08-13T21:26:02.295Z,95241.42
2018-08-13T21:28:36.778Z,95246.09
2018-08-13T21:31:12.156Z,95246.36
2018-08-13T21:33:47.522Z,95247.98
2018-08-13T21:36:27.412Z,95240.90
2018-08-13T21:42:23.762Z,95250.38
2018-08-13T21:45:00.012Z,95249.83
2018-08-13T21:47:36.519Z,95245.66
2018-08-13T21:50:16.665Z,95247.73
2018-08-13T21:52:51.886Z,95253.50
2018-08-13T21:55:26.672Z,95249.52
2018-08-13T21:58:01.000Z,95255.38
2018-08-13T22:00:40.845Z,95258.28
2018-08-13T22:03:15.721Z,95255.43
2018-08-13T22:05:50.384Z,95259.99
2018-08-13T22:08:24.924Z,95255.00
2018-08-13T22:11:00.439Z,95246.04
2018-08-13T22:13:45.088Z,95256.59
2018-08-13T22:16:20.578Z,95251.31
2018-08-13T22:18:55.850Z,95257.72
2018-08-13T22:21:30.993Z,95260.58
2018-08-13T22:27:05.027Z,95252.05
2018-08-13T22:29:41.057Z,95239.14
2018-08-13T22:32:16.801Z,95244.55
2018-08-13T22:34:51.696Z,95254.85
2018-08-13T22:37:26.107Z,95269.41
2018-08-13T22:40:01.068Z,95275.79
2018-08-13T22:42:35.892Z,95283.20
2018-08-13T22:45:10.956Z,95290.48
2018-08-13T22:47:45.839Z,95296.83
2018-08-13T22:50:20.448Z,95298.14
2018-08-13T22:53:13.018Z,95299.98
2018-08-13T22:55:48.257Z,95304.13
2018-08-13T22:58:23.018Z,95307.39
2018-08-13T23:00:57.471Z,95302.55
2018-08-13T23:03:31.936Z,95299.21
2018-08-13T23:06:06.640Z,95299.77
2018-08-13T23:08:41.228Z,95301.61
2018-08-13T23:11:16.085Z,95301.81
2018-08-13T23:13:50.756Z,95307.61
2018-08-13T23:16:26.530Z,95307.30
2018-08-13T23:19:01.480Z,95308.34
2018-08-13T23:21:35.985Z,95306.47
2018-08-13T23:24:10.481Z,95305.09
2018-08-13T23:26:45.293Z,95311.95
2018-08-13T23:29:20.009Z,95305.57
2018-08-13T23:31:54.337Z,95311.64
2018-08-13T23:34:28.998Z,95313.72
2018-08-13T23:37:03.828Z,95314.59
2018-08-13T23:39:38.425Z,95312.41
2018-08-13T23:42:13.085Z,95311.61
2018-08-13T23:44:50.340Z,95307.06
2018-08-13T23:47:25.111Z,95300.55
2018-08-13T23:49:59.385Z,95293.41
2018-08-13T23:52:33.709Z,95292.36
2018-08-13T23:55:11.359Z,95284.42
2018-08-13T23:57:46.492Z,95282.17
